TimeCST,TemperatureF,Dew PointF,Humidity,Sea Level PressureIn,VisibilityMPH,Wind Direction,Wind SpeedMPH,Gust SpeedMPH,PrecipitationIn,Events,Conditions,WindDirDegrees,DateUTC
12:56 AM,16.0,12.0,84,30.04,2.5,NE,10.4,-,0.02,,Overcast,40,2013-02-22 06:56:00
1:04 AM,15.8,12.2,86,29.96,3.0,NE,10.4,-,0.00,Snow,Light Snow,40,2013-02-22 07:04:00
1:13 AM,15.8,12.2,86,29.96,2.0,NE,10.4,-,0.00,Snow,Light Snow,40,2013-02-22 07:13:00
1:43 AM,15.8,12.2,86,29.94,3.0,NNE,11.5,-,0.00,,Overcast,30,2013-02-22 07:43:00
1:56 AM,15.1,12.0,88,30.01,4.0,NNE,9.2,-,0.01,,Overcast,20,2013-02-22 07:56:00
2:44 AM,15.8,12.2,86,29.93,7.0,NNE,10.4,-,0.00,Snow,Light Snow,30,2013-02-22 08:44:00
2:56 AM,16.0,12.9,88,30.00,2.0,NNE,9.2,-,0.00,Snow,Light Snow,30,2013-02-22 08:56:00
2:59 AM,15.8,12.2,86,29.93,1.5,NNE,8.1,-,0.00,Snow,Light Snow,30,2013-02-22 08:59:00
3:38 AM,15.8,12.2,86,29.92,1.5,North,8.1,-,0.02,Snow,Light Snow,10,2013-02-22 09:38:00
3:56 AM,15.1,12.9,91,30.00,1.8,North,6.9,-,0.03,Snow,Light Snow,10,2013-02-22 09:56:00
4:21 AM,15.8,12.2,86,29.92,2.0,North,5.8,-,0.01,Snow,Light Snow,10,2013-02-22 10:21:00
4:47 AM,15.8,12.2,86,29.91,1.8,North,6.9,-,0.01,Snow,Light Snow,360,2013-02-22 10:47:00
4:56 AM,16.0,12.9,88,29.99,2.0,North,8.1,-,0.02,Snow,Light Snow,360,2013-02-22 10:56:00
5:15 AM,15.8,12.2,86,29.91,2.5,North,8.1,-,0.00,Snow,Light Snow,10,2013-02-22 11:15:00
5:56 AM,16.0,12.9,88,30.00,2.5,North,9.2,-,0.00,Snow,Light Snow,10,2013-02-22 11:56:00
6:24 AM,15.8,12.2,86,29.93,2.5,North,8.1,-,0.00,Snow,Light Snow,10,2013-02-22 12:24:00
6:49 AM,15.8,12.2,86,29.92,1.5,NNW,6.9,-,0.00,Snow,Light Snow,340,2013-02-22 12:49:00
6:56 AM,15.1,12.9,91,30.01,1.5,NNW,8.1,-,0.01,Snow,Light Snow,340,2013-02-22 12:56:00
7:56 AM,16.0,12.9,88,30.01,2.5,NNW,12.7,-,0.01,Snow,Light Snow,340,2013-02-22 13:56:00
8:12 AM,15.8,12.2,86,29.92,2.5,North,12.7,-,0.00,Snow,Light Snow,350,2013-02-22 14:12:00
8:15 AM,15.8,12.2,86,29.92,6.0,North,12.7,-,0.00,Snow,Light Snow,350,2013-02-22 14:15:00
8:35 AM,15.8,12.2,86,29.92,9.0,North,12.7,-,0.00,,Scattered Clouds,360,2013-02-22 14:35:00
8:56 AM,17.1,12.9,84,29.99,10.0,NNE,13.8,-,0.00,,Partly Cloudy,20,2013-02-22 14:56:00
9:56 AM,18.0,12.9,81,30.01,10.0,NNE,11.5,-,N/A,,Overcast,20,2013-02-22 15:56:00
10:39 AM,19.4,14.0,80,29.93,2.0,North,13.8,-,0.00,Snow,Light Snow,10,2013-02-22 16:39:00
10:56 AM,19.9,15.1,81,30.01,2.0,North,10.4,-,0.00,Snow,Light Snow,10,2013-02-22 16:56:00
11:03 AM,19.4,15.8,86,29.94,2.0,North,9.2,-,0.00,Snow,Light Snow,350,2013-02-22 17:03:00
11:11 AM,19.4,15.8,86,29.94,3.0,North,10.4,-,0.00,,Overcast,350,2013-02-22 17:11:00
11:56 AM,21.0,15.1,78,30.02,5.0,NW,10.4,-,0.01,Snow,Light Snow,320,2013-02-22 17:56:00
12:56 PM,21.0,15.1,78,30.01,9.0,WNW,11.5,-,0.00,Snow,Light Snow,300,2013-02-22 18:56:00
1:03 PM,21.2,15.8,80,29.94,8.0,NW,12.7,-,0.00,Snow,Light Snow,310,2013-02-22 19:03:00
1:16 PM,21.2,15.8,80,29.93,5.0,NW,10.4,-,0.00,Snow,Light Snow,320,2013-02-22 19:16:00
1:29 PM,21.2,15.8,80,29.94,5.0,WNW,10.4,-,0.00,Snow,Light Snow,300,2013-02-22 19:29:00
1:56 PM,21.9,16.0,78,30.01,3.0,WNW,11.5,-,0.00,Snow,Light Snow,300,2013-02-22 19:56:00
2:28 PM,21.2,17.6,86,29.92,5.0,NW,16.1,-,0.00,Snow,Light Snow,310,2013-02-22 20:28:00
2:56 PM,23.0,17.1,78,30.00,5.0,NW,12.7,-,0.00,Snow,Light Snow,320,2013-02-22 20:56:00
3:56 PM,23.0,17.1,78,30.00,9.0,NNW,15.0,-,0.00,,Overcast,330,2013-02-22 21:56:00
4:56 PM,21.9,17.1,82,30.01,10.0,NW,10.4,-,0.00,,Overcast,320,2013-02-22 22:56:00
5:56 PM,21.0,17.1,85,30.02,3.0,NW,8.1,-,0.00,Snow,Light Snow,310,2013-02-22 23:56:00
6:56 PM,19.0,16.0,88,30.04,3.0,West,8.1,-,0.00,Snow,Light Snow,280,2013-02-23 00:56:00
7:56 PM,16.0,12.0,84,30.03,9.0,WNW,10.4,-,0.00,,Scattered Clouds,300,2013-02-23 01:56:00
8:56 PM,15.1,12.0,88,30.02,10.0,West,5.8,-,N/A,,Clear,270,2013-02-23 02:56:00
9:56 PM,12.9,10.9,92,30.01,10.0,West,4.6,-,N/A,,Clear,270,2013-02-23 03:56:00
10:56 PM,12.0,9.0,88,30.01,10.0,Calm,Calm,-,N/A,,Partly Cloudy,0,2013-02-23 04:56:00
11:56 PM,10.0,8.1,92,30.01,10.0,SW,3.5,-,N/A,,Clear,230,2013-02-23 05:56:00